Time;durP1;ratioP1;P1;durP2;ratioP2;P2;SDS_P1;SDS_P2;PMS_P1;PMS_P2;Temp;Humidity;BMP_temperature;BMP_pressure;BME280_temperature;BME280_humidity;BME280_pressure;Samples;Min_cycle;Max_cycle;Signal;HPM_P1;HPM_P2
2023/11/19 00:01:20;;;;;;;13.90;13.40;;;8.70;1.00;;;;;;5041921;28;20456;-79
2023/11/19 00:03:49;;;;;;;13.40;12.90;;;8.80;1.00;;;;;;5043728;28;20810;-80
2023/11/19 00:06:20;;;;;;;13.90;13.50;;;8.80;1.00;;;;;;5052776;28;20447;-83
2023/11/19 00:08:48;;;;;;;13.57;13.10;;;8.90;1.00;;;;;;5055729;28;20456;-81
2023/11/19 00:11:16;;;;;;;14.17;13.77;;;8.90;1.00;;;;;;5049191;28;20453;-79
2023/11/19 00:13:45;;;;;;;13.97;13.37;;;8.90;1.00;;;;;;5049863;28;20455;-79
2023/11/19 00:16:14;;;;;;;13.57;13.17;;;9.00;1.00;;;;;;5050284;28;20468;-78
2023/11/19 00:18:42;;;;;;;14.80;14.30;;;9.00;1.00;;;;;;5038041;28;21211;-79
2023/11/19 00:21:10;;;;;;;13.87;13.37;;;9.00;1.00;;;;;;5039417;28;20441;-79
2023/11/19 00:23:40;;;;;;;13.30;12.90;;;9.00;1.00;;;;;;5040594;28;20459;-78
2023/11/19 00:26:08;;;;;;;13.60;13.20;;;9.00;1.00;;;;;;5038510;28;20455;-79
2023/11/19 00:28:38;;;;;;;13.70;13.30;;;9.10;1.00;;;;;;5041132;28;20460;-80
2023/11/19 00:31:07;;;;;;;14.43;13.93;;;9.10;1.00;;;;;;5040780;28;20479;-80
2023/11/19 00:33:37;;;;;;;13.83;13.30;;;9.10;1.00;;;;;;5037271;28;20451;-78
2023/11/19 00:36:17;;;;;;;13.90;13.40;;;9.10;1.00;;;;;;5043430;28;20993;-78
2023/11/19 00:38:47;;;;;;;13.60;13.20;;;9.10;1.00;;;;;;5040809;28;20487;-78
2023/11/19 00:41:16;;;;;;;13.60;13.10;;;9.20;6.50;;;;;;5041568;28;20459;-79
2023/11/19 00:43:45;;;;;;;13.83;13.40;;;9.10;15.40;;;;;;5040333;28;21010;-81
2023/11/19 00:46:14;;;;;;;13.67;13.27;;;9.20;19.40;;;;;;5041130;28;20444;-79
2023/11/19 00:48:42;;;;;;;13.10;12.70;;;9.20;25.30;;;;;;5041253;28;20458;-77
2023/11/19 00:51:13;;;;;;;13.30;12.90;;;9.20;30.80;;;;;;5040388;28;20517;-78
2023/11/19 00:53:41;;;;;;;12.80;12.50;;;9.30;34.70;;;;;;5040208;28;20470;-79
2023/11/19 00:56:12;;;;;;;13.60;13.20;;;9.20;37.40;;;;;;5038773;28;20483;-81
2023/11/19 00:58:43;;;;;;;12.93;12.63;;;9.30;49.30;;;;;;5038138;28;20444;-79
2023/11/19 01:01:13;;;;;;;12.67;12.33;;;9.30;49.40;;;;;;5041806;28;21051;-82
2023/11/19 01:03:41;;;;;;;12.80;12.40;;;9.30;54.40;;;;;;5041394;28;20456;-79
2023/11/19 01:06:10;;;;;;;12.73;12.43;;;9.30;61.20;;;;;;5039005;28;20459;-78
2023/11/19 01:08:38;;;;;;;13.00;12.70;;;9.30;70.10;;;;;;5039315;28;20444;-78
2023/11/19 01:11:06;;;;;;;12.90;12.60;;;9.40;64.20;;;;;;5039301;28;20465;-79
2023/11/19 01:13:36;;;;;;;13.80;13.27;;;9.40;60.00;;;;;;5044272;28;20485;-78
2023/11/19 01:16:06;;;;;;;13.30;13.00;;;9.50;61.30;;;;;;5038284;28;21046;-79
2023/11/19 01:18:35;;;;;;;13.00;12.70;;;9.50;61.90;;;;;;5041494;28;20539;-79
2023/11/19 01:21:05;;;;;;;12.90;12.60;;;9.50;71.20;;;;;;5039345;28;21236;-77
2023/11/19 01:23:34;;;;;;;12.60;12.30;;;9.50;70.80;;;;;;5041638;28;21019;-82
2023/11/19 01:26:02;;;;;;;12.90;12.60;;;9.50;76.80;;;;;;5040529;28;20506;-78
2023/11/19 01:28:31;;;;;;;12.90;12.60;;;9.50;84.10;;;;;;5045051;28;20459;-80
2023/11/19 01:31:00;;;;;;;13.07;12.77;;;9.60;81.10;;;;;;5036542;28;20473;-79
2023/11/19 01:33:29;;;;;;;13.30;13.00;;;9.60;77.20;;;;;;5038923;28;20905;-79
2023/11/19 01:35:58;;;;;;;13.30;13.00;;;9.60;80.70;;;;;;5043585;28;20478;-82
2023/11/19 01:38:27;;;;;;;13.80;13.40;;;9.70;77.60;;;;;;5041455;28;20452;-79
2023/11/19 01:40:58;;;;;;;13.27;12.87;;;9.70;70.50;;;;;;5047114;28;20483;-78
2023/11/19 01:43:35;;;;;;;13.07;12.77;;;9.80;76.60;;;;;;5040432;28;20858;-78
2023/11/19 01:46:06;;;;;;;14.20;13.80;;;9.70;75.70;;;;;;5038691;28;20813;-82
2023/11/19 01:48:36;;;;;;;13.40;13.10;;;9.80;73.80;;;;;;5041035;28;20446;-79
2023/11/19 01:51:06;;;;;;;13.00;12.70;;;9.80;72.10;;;;;;5039421;28;20480;-78
2023/11/19 01:53:35;;;;;;;13.13;12.70;;;9.80;75.50;;;;;;5041944;28;20984;-78
2023/11/19 01:56:06;;;;;;;13.00;12.70;;;9.80;76.70;;;;;;5037364;28;20575;-79
2023/11/19 01:58:34;;;;;;;13.20;12.90;;;9.80;83.90;;;;;;5041208;28;20441;-80
2023/11/19 02:01:03;;;;;;;13.67;13.30;;;9.80;79.20;;;;;;5037661;28;21146;-78
2023/11/19 02:03:33;;;;;;;12.17;11.97;;;9.80;86.20;;;;;;5037034;28;20958;-79
2023/11/19 02:06:02;;;;;;;12.40;12.20;;;9.80;86.80;;;;;;5037025;28;20464;-79
2023/11/19 02:08:31;;;;;;;12.40;12.20;;;9.80;93.80;;;;;;5036436;28;20460;-78
2023/11/19 02:10:59;;;;;;;13.10;12.80;;;9.90;92.80;;;;;;5035339;28;20472;-78
2023/11/19 02:13:29;;;;;;;13.20;12.90;;;9.90;89.00;;;;;;5037557;28;20455;-81
2023/11/19 02:15:57;;;;;;;12.10;11.90;;;9.90;91.70;;;;;;5039251;28;20961;-79
2023/11/19 02:18:27;;;;;;;12.80;12.50;;;10.00;87.90;;;;;;5037671;28;20578;-78
2023/11/19 02:20:59;;;;;;;12.40;12.20;;;10.00;85.50;;;;;;5038267;28;20473;-78
2023/11/19 02:23:28;;;;;;;13.10;12.80;;;10.00;79.30;;;;;;5035242;28;20465;-79
2023/11/19 02:26:05;;;;;;;12.27;12.07;;;10.00;79.90;;;;;;5038443;28;20440;-79
2023/11/19 02:28:36;;;;;;;13.17;12.60;;;10.00;75.00;;;;;;5039112;28;20459;-78
2023/11/19 02:31:09;;;;;;;12.30;12.10;;;10.00;90.10;;;;;;5037427;28;20568;-78
2023/11/19 02:33:38;;;;;;;12.43;12.13;;;10.00;84.40;;;;;;5037551;28;21017;-79
2023/11/19 02:36:07;;;;;;;12.50;12.20;;;10.10;87.80;;;;;;5036903;28;20471;-80
2023/11/19 02:38:36;;;;;;;12.87;12.57;;;10.10;84.40;;;;;;5035449;28;20456;-79
2023/11/19 02:41:05;;;;;;;12.07;11.77;;;10.10;91.40;;;;;;5035658;28;20630;-81
2023/11/19 02:43:36;;;;;;;12.43;12.13;;;10.10;84.80;;;;;;5036180;28;20538;-79
2023/11/19 02:46:07;;;;;;;12.50;12.23;;;10.10;88.50;;;;;;5041447;28;20447;-79
2023/11/19 02:48:38;;;;;;;12.00;11.80;;;10.20;81.90;;;;;;5040443;28;20486;-78
2023/11/19 02:51:09;;;;;;;12.00;11.80;;;10.10;88.00;;;;;;5039382;28;20511;-80
2023/11/19 02:53:39;;;;;;;12.60;12.30;;;10.10;91.10;;;;;;5039342;28;20456;-80
2023/11/19 02:56:15;;;;;;;12.80;12.50;;;10.20;88.10;;;;;;5040974;28;20460;-81
2023/11/19 02:58:46;;;;;;;12.50;12.10;;;10.10;90.40;;;;;;5037610;28;20545;-79
2023/11/19 03:01:23;;;;;;;12.60;12.20;;;10.10;91.40;;;;;;5042818;28;20459;-79
2023/11/19 03:03:54;;;;;;;12.40;12.20;;;10.20;95.70;;;;;;5044400;28;20491;-80
2023/11/19 03:06:22;;;;;;;12.67;12.37;;;10.10;95.30;;;;;;5041092;28;20462;-79
2023/11/19 03:08:51;;;;;;;12.90;12.53;;;10.10;99.90;;;;;;5043943;28;20451;-80
2023/11/19 03:11:19;;;;;;;12.70;12.40;;;10.10;99.90;;;;;;5034916;28;20472;-81
2023/11/19 03:13:48;;;;;;;12.80;12.50;;;10.20;99.90;;;;;;5037218;28;20515;-79
2023/11/19 03:16:17;;;;;;;12.40;12.20;;;10.20;99.90;;;;;;5038142;28;20542;-80
2023/11/19 03:18:45;;;;;;;12.40;12.20;;;10.20;99.90;;;;;;5036472;28;20813;-80
2023/11/19 03:21:14;;;;;;;12.67;12.37;;;10.30;99.90;;;;;;5038362;28;20444;-79
2023/11/19 03:23:43;;;;;;;12.97;12.47;;;10.20;97.60;;;;;;5037257;28;20458;-80
2023/11/19 03:26:11;;;;;;;12.40;12.00;;;10.30;96.30;;;;;;5038464;28;20465;-82
2023/11/19 03:28:39;;;;;;;12.60;12.40;;;10.30;93.00;;;;;;5041493;28;20452;-81
2023/11/19 03:31:09;;;;;;;12.60;12.23;;;10.30;95.90;;;;;;5036240;28;21360;-80
2023/11/19 03:33:37;;;;;;;12.33;12.10;;;10.30;95.40;;;;;;5039964;28;20452;-78
2023/11/19 03:36:07;;;;;;;12.43;12.13;;;10.30;92.20;;;;;;5037733;28;20453;-81
2023/11/19 03:38:35;;;;;;;12.50;12.20;;;10.30;91.90;;;;;;5040631;28;21001;-79
2023/11/19 03:41:11;;;;;;;12.60;12.20;;;10.40;93.80;;;;;;5047797;28;20989;-78
2023/11/19 03:43:39;;;;;;;13.93;13.53;;;10.40;93.30;;;;;;5046794;28;20542;-80
2023/11/19 03:46:18;;;;;;;12.60;12.30;;;10.40;90.80;;;;;;5041754;28;20456;-78
2023/11/19 03:48:47;;;;;;;12.80;12.50;;;10.40;93.60;;;;;;5044480;28;20956;-76
2023/11/19 03:51:15;;;;;;;12.20;12.00;;;10.40;95.60;;;;;;5044574;28;20460;-78
2023/11/19 03:53:44;;;;;;;12.03;11.73;;;10.40;95.50;;;;;;5039151;28;20464;-78
2023/11/19 03:56:12;;;;;;;12.20;11.90;;;10.30;96.40;;;;;;5039500;28;20447;-78
2023/11/19 03:58:40;;;;;;;12.27;11.97;;;10.30;99.70;;;;;;5041408;28;20477;-78
2023/11/19 04:01:12;;;;;;;12.10;11.90;;;10.40;99.90;;;;;;5043042;28;20534;-78
2023/11/19 04:03:42;;;;;;;12.50;12.30;;;10.40;99.90;;;;;;5040745;28;20463;-80
2023/11/19 04:06:13;;;;;;;12.50;12.10;;;10.40;99.20;;;;;;5044613;28;20456;-82
2023/11/19 04:08:41;;;;;;;12.30;12.10;;;10.40;98.90;;;;;;5042910;28;20988;-78
2023/11/19 04:11:10;;;;;;;12.17;11.97;;;10.40;97.10;;;;;;5039335;28;20527;-80
2023/11/19 04:13:38;;;;;;;12.20;12.00;;;10.40;98.90;;;;;;5042507;28;20453;-78
2023/11/19 04:16:07;;;;;;;12.67;12.37;;;10.40;98.70;;;;;;5036614;28;20445;-78
2023/11/19 04:18:35;;;;;;;12.50;12.30;;;10.40;99.90;;;;;;5041454;28;20831;-79
2023/11/19 04:21:07;;;;;;;12.50;12.30;;;10.40;99.90;;;;;;5043452;28;20468;-81
2023/11/19 04:23:35;;;;;;;12.67;12.30;;;10.40;99.90;;;;;;5043112;28;20451;-80
2023/11/19 04:26:04;;;;;;;12.60;12.33;;;10.40;99.90;;;;;;5043555;28;20464;-79
2023/11/19 04:28:35;;;;;;;12.63;12.43;;;10.40;99.90;;;;;;5040490;28;20448;-79
2023/11/19 04:31:04;;;;;;;12.77;12.50;;;10.40;99.90;;;;;;5041334;28;20478;-80
2023/11/19 04:33:32;;;;;;;12.30;12.10;;;10.40;99.90;;;;;;5039363;28;20454;-80
2023/11/19 04:36:00;;;;;;;12.53;12.33;;;10.40;99.90;;;;;;5040238;28;20483;-79
2023/11/19 04:38:30;;;;;;;12.40;12.20;;;10.40;99.90;;;;;;5036804;28;20461;-79
2023/11/19 04:40:58;;;;;;;12.40;12.20;;;10.40;99.90;;;;;;5038568;28;20522;-79
2023/11/19 04:43:27;;;;;;;12.40;12.20;;;10.40;99.90;;;;;;5041772;28;20490;-79
2023/11/19 04:45:55;;;;;;;12.57;12.37;;;10.40;99.90;;;;;;5038177;28;20514;-80
2023/11/19 04:48:23;;;;;;;12.60;12.30;;;10.40;99.90;;;;;;5040627;28;20830;-78
2023/11/19 04:50:52;;;;;;;12.40;12.20;;;10.40;99.90;;;;;;5041077;28;20558;-79
2023/11/19 04:53:20;;;;;;;12.43;12.23;;;10.50;99.90;;;;;;5041511;28;20474;-80
2023/11/19 04:55:50;;;;;;;14.30;13.80;;;10.40;99.90;;;;;;5041890;28;20463;-79
2023/11/19 04:58:18;;;;;;;12.40;12.20;;;10.50;99.90;;;;;;5043344;28;20571;-80
2023/11/19 05:00:47;;;;;;;12.67;12.37;;;10.50;99.90;;;;;;5041015;28;20477;-79
2023/11/19 05:03:15;;;;;;;13.20;12.90;;;10.50;99.90;;;;;;5040965;28;20460;-79
2023/11/19 05:05:43;;;;;;;13.20;12.90;;;10.40;99.90;;;;;;5059490;28;20960;-79
2023/11/19 05:08:12;;;;;;;13.60;13.30;;;10.40;99.90;;;;;;5041307;28;20987;-81
2023/11/19 05:10:40;;;;;;;13.30;13.00;;;10.50;99.90;;;;;;5046474;28;20477;-79
2023/11/19 05:13:10;;;;;;;13.47;13.17;;;10.50;99.90;;;;;;5039887;28;20950;-78
2023/11/19 05:15:38;;;;;;;13.20;12.90;;;10.50;99.90;;;;;;5041987;28;20519;-78
2023/11/19 05:18:06;;;;;;;13.37;13.07;;;10.40;99.90;;;;;;5047420;28;20480;-78
2023/11/19 05:20:35;;;;;;;13.07;12.77;;;10.50;99.90;;;;;;5055677;28;20486;-79
2023/11/19 05:23:03;;;;;;;13.60;13.30;;;10.50;99.90;;;;;;5045402;28;20833;-80
2023/11/19 05:25:31;;;;;;;13.37;13.07;;;10.50;99.90;;;;;;5042142;28;20463;-82
2023/11/19 05:27:59;;;;;;;13.93;13.63;;;10.60;99.90;;;;;;5040940;28;20490;-80
2023/11/19 05:30:29;;;;;;;12.73;12.53;;;10.60;99.90;;;;;;5042505;28;20465;-79
2023/11/19 05:32:58;;;;;;;13.20;12.90;;;10.60;99.90;;;;;;5041007;28;20473;-80
2023/11/19 05:35:26;;;;;;;12.90;12.60;;;10.60;99.90;;;;;;5047013;28;20487;-80
2023/11/19 05:37:55;;;;;;;12.70;12.50;;;10.60;99.90;;;;;;5044186;28;20468;-79
2023/11/19 05:40:23;;;;;;;12.80;12.50;;;10.60;99.90;;;;;;5044943;28;20551;-81
2023/11/19 05:42:52;;;;;;;12.83;12.60;;;10.70;99.90;;;;;;5045223;28;20988;-79
2023/11/19 05:45:20;;;;;;;13.13;12.83;;;10.60;99.90;;;;;;5039184;28;20479;-79
2023/11/19 05:47:51;;;;;;;12.90;12.60;;;10.60;99.90;;;;;;5034443;28;20953;-80
2023/11/19 05:50:20;;;;;;;13.40;13.10;;;10.60;99.90;;;;;;5044436;28;21275;-79
2023/11/19 05:52:48;;;;;;;13.10;12.80;;;10.60;99.90;;;;;;5043215;28;20451;-80
2023/11/19 05:55:16;;;;;;;13.40;13.10;;;10.60;99.90;;;;;;5042554;28;20495;-79
2023/11/19 05:57:45;;;;;;;13.50;13.20;;;10.70;99.90;;;;;;5042477;28;20464;-79
2023/11/19 06:00:15;;;;;;;13.50;13.20;;;10.60;99.90;;;;;;5044301;28;20473;-80
2023/11/19 06:02:44;;;;;;;13.80;13.50;;;10.60;99.90;;;;;;5044849;28;20557;-78
2023/11/19 06:05:14;;;;;;;14.03;13.73;;;10.60;99.90;;;;;;5043187;28;20457;-81
2023/11/19 06:07:42;;;;;;;13.70;13.40;;;10.60;99.90;;;;;;5040460;28;20456;-78
2023/11/19 06:10:12;;;;;;;14.03;13.73;;;10.60;99.90;;;;;;5041395;28;20803;-79
2023/11/19 06:12:41;;;;;;;13.53;13.23;;;10.60;99.90;;;;;;5047817;28;20486;-79
2023/11/19 06:15:10;;;;;;;14.03;13.73;;;10.60;99.90;;;;;;5037857;28;20456;-79
2023/11/19 06:17:38;;;;;;;13.90;13.50;;;10.60;99.90;;;;;;5041423;28;20453;-81
2023/11/19 06:20:07;;;;;;;13.87;13.57;;;10.60;99.90;;;;;;5036272;28;20476;-78
2023/11/19 06:22:37;;;;;;;14.00;13.70;;;10.70;99.90;;;;;;5042938;28;20448;-79
2023/11/19 06:25:07;;;;;;;13.60;13.30;;;10.70;99.90;;;;;;5039041;28;20549;-78
2023/11/19 06:27:36;;;;;;;13.67;13.33;;;10.70;99.90;;;;;;5040536;28;20519;-79
2023/11/19 06:30:05;;;;;;;13.83;13.50;;;10.80;99.90;;;;;;5040836;28;20547;-79
2023/11/19 06:32:33;;;;;;;14.17;13.77;;;10.70;99.90;;;;;;5042432;28;20946;-80
2023/11/19 06:35:01;;;;;;;13.70;13.40;;;10.70;99.90;;;;;;5038786;28;20489;-79
2023/11/19 06:37:29;;;;;;;13.70;13.40;;;10.70;99.90;;;;;;5041745;28;20457;-79
2023/11/19 06:39:59;;;;;;;14.40;14.00;;;10.70;99.90;;;;;;5040544;28;20499;-79
2023/11/19 06:42:28;;;;;;;14.23;13.83;;;10.80;99.90;;;;;;5046364;28;20594;-79
2023/11/19 06:44:57;;;;;;;13.73;13.40;;;10.80;99.90;;;;;;5045227;28;20459;-79
2023/11/19 06:47:27;;;;;;;13.87;13.47;;;10.80;99.90;;;;;;5044576;28;20460;-81
2023/11/19 06:49:56;;;;;;;13.73;13.43;;;10.80;99.90;;;;;;5045820;28;20468;-79
2023/11/19 06:52:24;;;;;;;13.80;13.50;;;10.80;99.90;;;;;;5039876;28;20440;-79
2023/11/19 06:54:53;;;;;;;14.20;13.90;;;10.70;99.90;;;;;;5042023;28;20835;-79
2023/11/19 06:57:36;;;;;;;13.70;13.30;;;10.80;99.90;;;;;;5037254;28;20982;-79
2023/11/19 07:00:06;;;;;;;13.60;13.30;;;10.80;99.90;;;;;;5040976;28;20486;-80
2023/11/19 07:02:34;;;;;;;13.67;13.37;;;10.80;99.90;;;;;;5037902;28;20973;-78
2023/11/19 07:05:04;;;;;;;13.97;13.60;;;10.80;99.90;;;;;;5036232;28;20455;-78
2023/11/19 07:07:33;;;;;;;14.93;14.17;;;10.80;99.90;;;;;;5041924;28;20453;-79
2023/11/19 07:10:02;;;;;;;13.90;13.60;;;10.80;99.90;;;;;;5047678;28;20472;-79
2023/11/19 07:12:30;;;;;;;14.00;13.50;;;10.80;99.90;;;;;;5035613;28;20457;-80
2023/11/19 07:15:00;;;;;;;14.00;13.70;;;10.80;99.90;;;;;;5043694;28;20444;-84
2023/11/19 07:17:28;;;;;;;14.03;13.73;;;10.80;99.90;;;;;;5051056;28;20456;-82
2023/11/19 07:19:59;;;;;;;14.30;13.90;;;10.80;99.90;;;;;;5041417;28;20467;-80
2023/11/19 07:22:29;;;;;;;14.90;14.30;;;10.80;99.90;;;;;;5041286;28;20459;-78
2023/11/19 07:24:58;;;;;;;15.00;14.60;;;10.80;99.90;;;;;;5040660;28;20443;-79
2023/11/19 07:27:27;;;;;;;14.50;14.10;;;10.90;99.90;;;;;;5045637;28;20449;-84
2023/11/19 07:29:56;;;;;;;14.17;13.87;;;10.90;99.90;;;;;;5042679;28;20460;-84
2023/11/19 07:32:25;;;;;;;14.87;14.40;;;10.90;99.90;;;;;;5040741;28;20521;-84
2023/11/19 07:34:54;;;;;;;14.00;13.70;;;10.90;99.90;;;;;;5040003;28;21212;-86
2023/11/19 07:37:25;;;;;;;14.57;14.17;;;11.00;99.90;;;;;;5035943;28;20204;-79
2023/11/19 07:39:53;;;;;;;13.90;13.60;;;11.00;99.90;;;;;;5042070;28;20530;-81
2023/11/19 07:42:22;;;;;;;15.13;14.33;;;11.00;99.90;;;;;;5039366;28;20459;-79
2023/11/19 07:44:50;;;;;;;15.13;14.63;;;11.00;99.90;;;;;;5040897;28;21083;-80
2023/11/19 07:47:19;;;;;;;14.20;13.80;;;11.00;99.90;;;;;;5043930;28;20965;-78
2023/11/19 07:49:48;;;;;;;14.10;13.80;;;11.00;99.90;;;;;;5040672;28;20514;-81
2023/11/19 07:52:16;;;;;;;14.50;13.93;;;11.00;99.90;;;;;;5038852;28;20452;-79
2023/11/19 07:54:48;;;;;;;14.20;13.80;;;11.00;99.90;;;;;;5039354;28;20437;-79
2023/11/19 07:57:16;;;;;;;14.33;13.93;;;11.00;99.90;;;;;;5038705;28;20195;-79
2023/11/19 07:59:44;;;;;;;14.57;13.97;;;11.00;99.90;;;;;;5034188;28;20521;-81
2023/11/19 08:02:12;;;;;;;14.30;13.90;;;11.00;99.90;;;;;;5034836;28;20472;-79
2023/11/19 08:04:44;;;;;;;14.20;13.80;;;10.90;99.90;;;;;;5037950;28;21040;-79
2023/11/19 08:07:14;;;;;;;14.37;13.93;;;10.90;99.90;;;;;;5037148;28;20455;-79
2023/11/19 08:09:42;;;;;;;14.47;14.07;;;11.00;99.90;;;;;;5036053;28;20469;-80
2023/11/19 08:12:11;;;;;;;14.30;13.90;;;11.00;99.90;;;;;;5042387;28;20440;-79
2023/11/19 08:14:39;;;;;;;13.80;13.50;;;11.00;99.90;;;;;;5036471;28;20463;-80
2023/11/19 08:17:07;;;;;;;13.90;13.60;;;11.00;99.90;;;;;;5038994;28;20526;-79
2023/11/19 08:19:35;;;;;;;13.47;13.17;;;11.00;99.90;;;;;;5037682;28;20514;-79
2023/11/19 08:22:04;;;;;;;13.77;13.47;;;11.10;99.90;;;;;;5040180;28;20531;-80
2023/11/19 08:24:33;;;;;;;13.97;13.67;;;11.10;99.90;;;;;;5036235;28;20515;-81
2023/11/19 08:27:01;;;;;;;13.87;13.57;;;11.10;99.90;;;;;;5039838;28;20976;-80
2023/11/19 08:29:30;;;;;;;14.10;13.80;;;11.10;99.90;;;;;;5044635;28;20469;-79
2023/11/19 08:32:00;;;;;;;14.40;14.00;;;11.20;99.90;;;;;;5038863;28;20468;-79
2023/11/19 08:34:30;;;;;;;14.17;13.77;;;11.20;99.90;;;;;;5037753;28;20488;-78
2023/11/19 08:36:58;;;;;;;14.60;14.20;;;11.30;99.90;;;;;;5037340;28;20456;-81
2023/11/19 08:39:26;;;;;;;14.50;14.10;;;11.50;99.90;;;;;;5040664;28;20487;-80
2023/11/19 08:41:56;;;;;;;14.90;14.50;;;11.60;99.90;;;;;;5043677;28;20548;-81
2023/11/19 08:44:25;;;;;;;14.40;14.00;;;11.40;99.90;;;;;;5039852;28;20461;-78
2023/11/19 08:46:53;;;;;;;14.63;14.23;;;11.50;99.90;;;;;;5035478;28;20451;-80
2023/11/19 08:49:21;;;;;;;14.70;14.30;;;11.50;99.90;;;;;;5041104;28;20500;-81
2023/11/19 08:51:49;;;;;;;14.53;14.13;;;11.60;99.90;;;;;;5040273;28;20453;-78
2023/11/19 08:54:20;;;;;;;14.53;14.20;;;11.60;99.90;;;;;;5039580;28;20547;-79
2023/11/19 08:56:50;;;;;;;14.70;14.30;;;11.80;99.90;;;;;;5039735;28;20449;-79
2023/11/19 08:59:20;;;;;;;15.00;14.60;;;11.90;99.90;;;;;;5037953;28;21084;-78
2023/11/19 09:01:48;;;;;;;14.80;14.30;;;12.00;93.30;;;;;;5041051;28;20459;-78
2023/11/19 09:04:17;;;;;;;14.60;14.20;;;12.10;79.90;;;;;;5035809;28;20539;-78
2023/11/19 09:06:45;;;;;;;14.70;14.30;;;12.10;59.40;;;;;;5037102;28;20464;-78
2023/11/19 09:09:13;;;;;;;14.60;14.20;;;12.00;62.70;;;;;;5040891;28;20487;-77
2023/11/19 09:11:42;;;;;;;14.60;14.20;;;12.00;64.00;;;;;;5038081;28;20574;-79
2023/11/19 09:14:10;;;;;;;14.80;14.40;;;12.00;62.30;;;;;;5035435;28;20465;-80
2023/11/19 09:16:40;;;;;;;14.90;14.50;;;12.10;62.80;;;;;;5038286;28;20449;-78
2023/11/19 09:19:08;;;;;;;14.70;14.30;;;12.20;58.60;;;;;;5040372;28;20945;-80
2023/11/19 09:21:38;;;;;;;14.70;14.30;;;12.60;54.20;;;;;;5040687;28;20472;-78
2023/11/19 09:24:07;;;;;;;15.00;14.60;;;12.60;1.30;;;;;;5039706;28;20985;-79
2023/11/19 09:26:39;;;;;;;14.67;14.27;;;12.50;5.80;;;;;;5040708;28;20456;-78
2023/11/19 09:29:07;;;;;;;14.07;13.67;;;12.50;6.60;;;;;;5038844;28;20485;-78
2023/11/19 09:31:35;;;;;;;15.10;14.70;;;12.60;32.00;;;;;;5037970;28;20440;-78
2023/11/19 09:34:05;;;;;;;15.33;14.93;;;13.10;14.70;;;;;;5037734;28;20467;-78
2023/11/19 09:36:33;;;;;;;15.60;15.10;;;13.40;1.00;;;;;;5035857;28;20469;-79
2023/11/19 09:39:02;;;;;;;15.00;14.60;;;13.70;1.00;;;;;;5043199;28;20452;-79
2023/11/19 09:41:31;;;;;;;15.40;15.00;;;13.50;1.00;;;;;;5039803;28;20484;-77
2023/11/19 09:43:59;;;;;;;15.00;14.60;;;13.90;1.00;;;;;;5039780;28;20457;-79
2023/11/19 09:46:29;;;;;;;15.20;14.80;;;14.00;99.90;;;;;;5040133;28;20462;-77
2023/11/19 09:49:00;;;;;;;15.30;14.80;;;13.60;99.90;;;;;;5035104;28;20464;-78
2023/11/19 09:51:29;;;;;;;15.20;14.80;;;13.60;1.00;;;;;;5037859;28;20453;-77
2023/11/19 09:53:57;;;;;;;15.80;15.30;;;14.00;1.00;;;;;;5042361;28;20445;-77
2023/11/19 09:56:28;;;;;;;16.33;15.77;;;15.20;99.90;;;;;;5045848;28;20455;-78
2023/11/19 09:58:56;;;;;;;16.80;16.20;;;16.30;99.90;;;;;;5045111;28;20989;-77
2023/11/19 10:01:25;;;;;;;16.40;15.90;;;15.90;99.90;;;;;;5043661;28;20514;-79
2023/11/19 10:03:57;;;;;;;16.30;15.70;;;15.60;73.30;;;;;;5038188;28;20463;-77
2023/11/19 10:06:27;;;;;;;16.13;15.63;;;15.80;1.00;;;;;;5037957;28;20452;-79
2023/11/19 10:08:56;;;;;;;16.10;15.60;;;15.40;99.90;;;;;;5038894;28;20488;-79
2023/11/19 10:11:25;;;;;;;16.40;15.90;;;15.60;20.00;;;;;;5045979;28;20460;-81
2023/11/19 10:13:55;;;;;;;16.50;16.00;;;16.90;99.90;;;;;;5062866;28;20478;-82
2023/11/19 10:16:30;;;;;;;16.20;15.70;;;18.00;1.00;;;;;;5044783;28;20453;-81
2023/11/19 10:18:58;;;;;;;17.00;16.40;;;17.50;99.90;;;;;;5046419;28;20488;-82
2023/11/19 10:21:27;;;;;;;16.80;16.20;;;17.10;99.90;;;;;;5042778;28;20889;-84
2023/11/19 10:23:59;;;;;;;16.50;16.10;;;18.10;1.00;;;;;;5050111;28;20484;-84
2023/11/19 10:26:29;;;;;;;16.67;16.07;;;17.20;99.90;;;;;;5050265;28;20539;-83
2023/11/19 10:28:58;;;;;;;16.10;15.70;;;16.90;99.90;;;;;;5050781;28;20444;-82
2023/11/19 10:31:26;;;;;;;16.23;15.53;;;16.60;99.90;;;;;;5057701;28;20459;-87
2023/11/19 10:33:55;;;;;;;15.90;15.50;;;16.10;99.90;;;;;;5053997;28;20440;-84
2023/11/19 10:36:25;;;;;;;16.10;15.70;;;17.20;99.90;;;;;;5054209;28;20456;-83
2023/11/19 10:38:54;;;;;;;15.90;15.50;;;18.00;1.00;;;;;;5050276;28;20456;-78
2023/11/19 10:41:31;;;;;;;16.50;15.97;;;17.50;1.00;;;;;;5053885;28;20476;-83
2023/11/19 10:44:00;;;;;;;15.90;15.40;;;17.70;1.00;;;;;;5049003;28;20515;-82
2023/11/19 10:46:39;;;;;;;15.80;15.40;;;17.10;1.00;;;;;;5049181;28;20464;-82
2023/11/19 10:49:08;;;;;;;15.70;15.30;;;16.50;45.40;;;;;;5052096;28;20450;-82
2023/11/19 10:51:36;;;;;;;15.50;15.10;;;16.10;99.90;;;;;;5040156;28;20809;-80
2023/11/19 10:54:06;;;;;;;15.27;14.77;;;15.80;99.90;;;;;;5038410;28;20455;-79
2023/11/19 10:56:36;;;;;;;14.97;14.57;;;15.60;1.00;;;;;;5036643;28;20460;-80
2023/11/19 10:59:05;;;;;;;15.00;14.60;;;15.50;99.90;;;;;;5044290;28;20957;-78
2023/11/19 11:01:54;;;;;;;13.70;13.30;;;15.50;99.90;;;;;;5043731;28;20480;-78
2023/11/19 11:04:26;;;;;;;14.60;14.10;;;15.10;1.00;;;;;;5039887;28;20460;-78
2023/11/19 11:06:57;;;;;;;17.07;16.57;;;15.00;1.00;;;;;;5036968;28;20479;-78
2023/11/19 11:09:27;;;;;;;17.00;16.50;;;14.90;1.00;;;;;;5038683;28;20473;-80
2023/11/19 11:11:58;;;;;;;15.03;14.30;;;14.80;1.00;;;;;;5035928;28;20444;-79
2023/11/19 11:14:28;;;;;;;15.80;15.23;;;14.80;1.00;;;;;;5041604;28;20547;-82
2023/11/19 11:16:58;;;;;;;15.60;15.10;;;14.70;1.00;;;;;;5040038;28;20455;-78
2023/11/19 11:19:27;;;;;;;15.70;15.10;;;14.90;1.00;;;;;;5035163;28;20473;-78
2023/11/19 11:21:57;;;;;;;15.47;15.07;;;15.10;1.00;;;;;;5036856;28;20517;-78
2023/11/19 11:24:49;;;;;;;15.77;15.27;;;15.10;1.00;;;;;;5040032;28;20456;-76
2023/11/19 11:27:53;;;;;;;14.50;14.10;;;15.10;99.90;;;;;;5037109;28;20806;-78
2023/11/19 11:30:34;;;;;;;14.33;13.83;;;14.90;99.90;;;;;;5023556;28;20499;-79
2023/11/19 11:33:23;;;;;;;14.17;13.77;;;14.80;99.90;;;;;;5034913;28;20464;-79
2023/11/19 11:36:01;;;;;;;14.33;13.87;;;14.80;1.00;;;;;;5036743;28;20464;-78
2023/11/19 11:38:31;;;;;;;14.40;14.00;;;14.70;1.00;;;;;;5029295;28;20460;-77
2023/11/19 11:41:20;;;;;;;14.00;13.60;;;14.60;1.00;;;;;;5035699;28;21008;-78
2023/11/19 11:43:50;;;;;;;15.23;14.53;;;14.50;1.00;;;;;;5034895;28;20450;-78
2023/11/19 11:46:56;;;;;;;14.90;14.50;;;14.50;1.00;;;;;;5036704;28;20463;-79
2023/11/19 11:49:30;;;;;;;15.30;14.70;;;14.50;1.00;;;;;;5037549;28;20482;-79
2023/11/19 11:52:03;;;;;;;14.90;14.50;;;14.40;1.00;;;;;;5037093;28;20539;-77
2023/11/19 11:54:32;;;;;;;15.23;14.83;;;14.50;99.90;;;;;;5038498;28;20924;-78
2023/11/19 11:57:12;;;;;;;15.60;15.10;;;14.50;99.90;;;;;;5035240;28;20461;-81
2023/11/19 11:59:50;;;;;;;15.70;15.30;;;14.50;99.90;;;;;;5036629;28;21226;-80
2023/11/19 12:02:21;;;;;;;15.03;14.70;;;14.50;1.00;;;;;;5040244;28;20607;-81
2023/11/19 12:04:50;;;;;;;13.70;13.37;;;14.50;99.90;;;;;;5036247;28;20470;-81
2023/11/19 12:07:21;;;;;;;14.20;13.80;;;14.50;1.00;;;;;;5039393;28;20457;-80
2023/11/19 12:09:53;;;;;;;13.47;13.13;;;14.50;1.00;;;;;;5055248;28;20484;-81
2023/11/19 12:12:24;;;;;;;13.90;13.50;;;14.60;99.90;;;;;;5037767;28;20463;-81
2023/11/19 12:15:14;;;;;;;13.73;13.33;;;14.50;99.90;;;;;;5039834;28;20461;-80
2023/11/19 12:17:52;;;;;;;13.80;13.40;;;14.50;99.90;;;;;;5041917;28;20452;-79
2023/11/19 12:20:23;;;;;;;13.93;13.50;;;14.60;99.90;;;;;;5038861;28;20472;-80
2023/11/19 12:22:55;;;;;;;13.67;13.30;;;14.60;99.90;;;;;;5036101;28;20472;-81
2023/11/19 12:25:26;;;;;;;13.47;13.17;;;14.60;99.90;;;;;;5035118;28;20474;-80
2023/11/19 12:27:55;;;;;;;13.70;13.30;;;14.50;99.90;;;;;;5055679;28;20464;-79
2023/11/19 12:30:25;;;;;;;13.80;13.40;;;14.60;99.90;;;;;;5039169;28;20607;-80
2023/11/19 12:32:55;;;;;;;13.53;13.23;;;14.60;99.90;;;;;;5037944;28;20506;-78
2023/11/19 12:35:24;;;;;;;15.30;14.80;;;14.60;99.90;;;;;;5034651;28;20489;-80
2023/11/19 12:37:53;;;;;;;14.30;13.80;;;14.60;59.70;;;;;;5037767;28;20454;-79
2023/11/19 12:40:23;;;;;;;13.70;13.40;;;14.60;47.40;;;;;;5043882;28;20471;-78
2023/11/19 12:42:53;;;;;;;13.73;13.43;;;14.60;99.90;;;;;;5040658;28;21076;-79
2023/11/19 12:45:24;;;;;;;13.87;13.57;;;14.60;99.90;;;;;;5036372;28;20453;-79